sensor_id;sensor_type;location;lat;lon;timestamp;P1;durP1;ratioP1;P2;durP2;ratioP2
71562;SDS011;59391;52.504;13.438;2023-07-02T00:01:45;4.93;;;2.97;;
71562;SDS011;59391;52.504;13.438;2023-07-02T00:04:12;5.32;;;3.10;;
71562;SDS011;59391;52.504;13.438;2023-07-02T00:06:41;4.72;;;3.00;;
71562;SDS011;59391;52.504;13.438;2023-07-02T00:09:09;5.00;;;2.90;;
71562;SDS011;59391;52.504;13.438;2023-07-02T00:11:36;5.40;;;2.90;;
71562;SDS011;59391;52.504;13.438;2023-07-02T00:14:08;4.10;;;2.83;;
71562;SDS011;59391;52.504;13.438;2023-07-02T00:16:35;4.50;;;2.70;;
71562;SDS011;59391;52.504;13.438;2023-07-02T00:19:03;6.03;;;3.60;;
71562;SDS011;59391;52.504;13.438;2023-07-02T00:21:29;5.20;;;3.10;;
71562;SDS011;59391;52.504;13.438;2023-07-02T00:23:57;4.72;;;2.90;;
71562;SDS011;59391;52.504;13.438;2023-07-02T00:26:24;6.30;;;3.60;;
71562;SDS011;59391;52.504;13.438;2023-07-02T00:28:53;4.82;;;3.17;;
71562;SDS011;59391;52.504;13.438;2023-07-02T00:31:20;4.38;;;3.00;;
71562;SDS011;59391;52.504;13.438;2023-07-02T00:33:47;4.60;;;2.87;;
71562;SDS011;59391;52.504;13.438;2023-07-02T00:36:13;4.68;;;3.10;;
71562;SDS011;59391;52.504;13.438;2023-07-02T00:38:43;5.18;;;3.10;;
71562;SDS011;59391;52.504;13.438;2023-07-02T00:41:11;4.50;;;3.10;;
71562;SDS011;59391;52.504;13.438;2023-07-02T00:43:37;5.07;;;3.13;;
71562;SDS011;59391;52.504;13.438;2023-07-02T00:46:09;5.80;;;3.67;;
71562;SDS011;59391;52.504;13.438;2023-07-02T00:48:42;4.60;;;3.22;;
71562;SDS011;59391;52.504;13.438;2023-07-02T00:51:10;5.30;;;3.45;;
71562;SDS011;59391;52.504;13.438;2023-07-02T00:53:40;5.95;;;3.78;;
71562;SDS011;59391;52.504;13.438;2023-07-02T00:56:06;5.63;;;3.87;;
71562;SDS011;59391;52.504;13.438;2023-07-02T00:58:32;6.07;;;3.80;;
71562;SDS011;59391;52.504;13.438;2023-07-02T01:01:19;5.40;;;3.88;;
71562;SDS011;59391;52.504;13.438;2023-07-02T01:03:51;5.78;;;4.20;;
71562;SDS011;59391;52.504;13.438;2023-07-02T01:06:30;5.78;;;4.05;;
71562;SDS011;59391;52.504;13.438;2023-07-02T01:08:59;5.73;;;4.17;;
71562;SDS011;59391;52.504;13.438;2023-07-02T01:14:02;5.88;;;4.10;;
71562;SDS011;59391;52.504;13.438;2023-07-02T01:16:37;7.97;;;4.15;;
71562;SDS011;59391;52.504;13.438;2023-07-02T01:19:11;5.80;;;4.13;;
71562;SDS011;59391;52.504;13.438;2023-07-02T01:22:21;7.35;;;4.30;;
71562;SDS011;59391;52.504;13.438;2023-07-02T01:24:50;6.47;;;4.13;;
71562;SDS011;59391;52.504;13.438;2023-07-02T01:27:17;6.03;;;4.40;;
71562;SDS011;59391;52.504;13.438;2023-07-02T01:29:43;6.90;;;4.50;;
71562;SDS011;59391;52.504;13.438;2023-07-02T01:32:13;6.57;;;4.78;;
71562;SDS011;59391;52.504;13.438;2023-07-02T01:34:39;8.43;;;4.90;;
71562;SDS011;59391;52.504;13.438;2023-07-02T01:37:05;6.78;;;5.20;;
71562;SDS011;59391;52.504;13.438;2023-07-02T01:39:31;7.38;;;5.38;;
71562;SDS011;59391;52.504;13.438;2023-07-02T01:42:12;7.78;;;5.22;;
71562;SDS011;59391;52.504;13.438;2023-07-02T01:44:41;7.07;;;5.10;;
71562;SDS011;59391;52.504;13.438;2023-07-02T01:47:12;8.07;;;5.50;;
71562;SDS011;59391;52.504;13.438;2023-07-02T01:49:38;7.22;;;5.03;;
71562;SDS011;59391;52.504;13.438;2023-07-02T01:52:05;7.00;;;5.32;;
71562;SDS011;59391;52.504;13.438;2023-07-02T01:54:31;7.75;;;5.53;;
71562;SDS011;59391;52.504;13.438;2023-07-02T01:56:58;7.67;;;5.37;;
71562;SDS011;59391;52.504;13.438;2023-07-02T01:59:24;7.80;;;5.35;;
71562;SDS011;59391;52.504;13.438;2023-07-02T02:01:50;8.30;;;6.30;;
71562;SDS011;59391;52.504;13.438;2023-07-02T02:04:16;8.20;;;6.13;;
71562;SDS011;59391;52.504;13.438;2023-07-02T02:06:42;8.45;;;6.25;;
71562;SDS011;59391;52.504;13.438;2023-07-02T02:09:08;10.77;;;6.82;;
71562;SDS011;59391;52.504;13.438;2023-07-02T02:11:37;8.70;;;6.57;;
71562;SDS011;59391;52.504;13.438;2023-07-02T02:14:05;8.48;;;6.70;;
71562;SDS011;59391;52.504;13.438;2023-07-02T02:16:31;8.27;;;6.00;;
71562;SDS011;59391;52.504;13.438;2023-07-02T02:18:58;9.05;;;6.00;;
71562;SDS011;59391;52.504;13.438;2023-07-02T02:21:26;9.70;;;6.40;;
71562;SDS011;59391;52.504;13.438;2023-07-02T02:23:52;10.90;;;6.30;;
71562;SDS011;59391;52.504;13.438;2023-07-02T02:26:17;7.65;;;6.15;;
71562;SDS011;59391;52.504;13.438;2023-07-02T02:28:43;9.07;;;6.00;;
71562;SDS011;59391;52.504;13.438;2023-07-02T02:31:09;8.07;;;5.75;;
71562;SDS011;59391;52.504;13.438;2023-07-02T02:33:34;8.27;;;5.88;;
71562;SDS011;59391;52.504;13.438;2023-07-02T02:36:00;8.65;;;5.97;;
71562;SDS011;59391;52.504;13.438;2023-07-02T02:38:27;8.02;;;5.68;;
71562;SDS011;59391;52.504;13.438;2023-07-02T02:40:52;9.13;;;6.00;;
71562;SDS011;59391;52.504;13.438;2023-07-02T02:43:18;8.87;;;5.73;;
71562;SDS011;59391;52.504;13.438;2023-07-02T02:45:45;8.55;;;5.57;;
71562;SDS011;59391;52.504;13.438;2023-07-02T02:48:11;6.80;;;5.55;;
71562;SDS011;59391;52.504;13.438;2023-07-02T02:50:37;8.07;;;5.32;;
71562;SDS011;59391;52.504;13.438;2023-07-02T02:53:08;7.40;;;4.93;;
71562;SDS011;59391;52.504;13.438;2023-07-02T02:55:37;8.00;;;5.65;;
71562;SDS011;59391;52.504;13.438;2023-07-02T02:58:03;8.02;;;5.45;;
71562;SDS011;59391;52.504;13.438;2023-07-02T03:00:29;7.53;;;5.53;;
71562;SDS011;59391;52.504;13.438;2023-07-02T03:02:54;7.67;;;5.50;;
71562;SDS011;59391;52.504;13.438;2023-07-02T03:05:21;8.38;;;5.40;;
71562;SDS011;59391;52.504;13.438;2023-07-02T03:07:50;7.88;;;5.47;;
71562;SDS011;59391;52.504;13.438;2023-07-02T03:10:16;8.60;;;5.50;;
71562;SDS011;59391;52.504;13.438;2023-07-02T03:12:42;7.47;;;5.68;;
71562;SDS011;59391;52.504;13.438;2023-07-02T03:15:08;7.20;;;5.20;;
71562;SDS011;59391;52.504;13.438;2023-07-02T03:17:34;7.45;;;5.55;;
71562;SDS011;59391;52.504;13.438;2023-07-02T03:20:00;7.63;;;5.27;;
71562;SDS011;59391;52.504;13.438;2023-07-02T03:22:29;8.43;;;5.80;;
71562;SDS011;59391;52.504;13.438;2023-07-02T03:24:54;7.15;;;4.93;;
71562;SDS011;59391;52.504;13.438;2023-07-02T03:27:20;8.43;;;5.07;;
71562;SDS011;59391;52.504;13.438;2023-07-02T03:29:46;13.70;;;6.07;;
71562;SDS011;59391;52.504;13.438;2023-07-02T03:32:11;8.77;;;5.30;;
71562;SDS011;59391;52.504;13.438;2023-07-02T03:34:37;6.50;;;4.77;;
71562;SDS011;59391;52.504;13.438;2023-07-02T03:37:02;9.43;;;5.13;;
71562;SDS011;59391;52.504;13.438;2023-07-02T03:39:28;7.77;;;4.80;;
71562;SDS011;59391;52.504;13.438;2023-07-02T03:41:54;7.78;;;5.00;;
71562;SDS011;59391;52.504;13.438;2023-07-02T03:44:19;7.10;;;5.10;;
71562;SDS011;59391;52.504;13.438;2023-07-02T03:46:45;8.83;;;5.13;;
71562;SDS011;59391;52.504;13.438;2023-07-02T03:49:11;5.82;;;4.13;;
71562;SDS011;59391;52.504;13.438;2023-07-02T03:51:36;7.37;;;4.60;;
71562;SDS011;59391;52.504;13.438;2023-07-02T03:54:03;6.68;;;4.32;;
71562;SDS011;59391;52.504;13.438;2023-07-02T03:56:29;7.03;;;4.57;;
71562;SDS011;59391;52.504;13.438;2023-07-02T03:58:54;6.63;;;4.30;;
71562;SDS011;59391;52.504;13.438;2023-07-02T04:01:20;7.82;;;4.47;;
71562;SDS011;59391;52.504;13.438;2023-07-02T04:03:49;6.67;;;4.50;;
71562;SDS011;59391;52.504;13.438;2023-07-02T04:06:17;7.20;;;4.57;;
71562;SDS011;59391;52.504;13.438;2023-07-02T04:08:43;7.55;;;4.35;;
71562;SDS011;59391;52.504;13.438;2023-07-02T04:11:10;6.88;;;4.18;;
71562;SDS011;59391;52.504;13.438;2023-07-02T04:13:37;6.57;;;4.03;;
71562;SDS011;59391;52.504;13.438;2023-07-02T04:16:04;6.40;;;3.85;;
71562;SDS011;59391;52.504;13.438;2023-07-02T04:18:30;7.45;;;4.47;;
71562;SDS011;59391;52.504;13.438;2023-07-02T04:20:56;10.18;;;4.93;;
71562;SDS011;59391;52.504;13.438;2023-07-02T04:23:23;7.38;;;4.90;;
71562;SDS011;59391;52.504;13.438;2023-07-02T04:25:49;8.75;;;4.53;;
71562;SDS011;59391;52.504;13.438;2023-07-02T04:28:15;6.90;;;4.40;;
71562;SDS011;59391;52.504;13.438;2023-07-02T04:30:42;7.10;;;4.25;;
71562;SDS011;59391;52.504;13.438;2023-07-02T04:33:08;7.65;;;4.38;;
71562;SDS011;59391;52.504;13.438;2023-07-02T04:35:33;7.72;;;4.28;;
71562;SDS011;59391;52.504;13.438;2023-07-02T04:38:00;8.88;;;4.25;;
71562;SDS011;59391;52.504;13.438;2023-07-02T04:40:26;7.15;;;4.57;;
71562;SDS011;59391;52.504;13.438;2023-07-02T04:42:52;7.63;;;4.38;;
71562;SDS011;59391;52.504;13.438;2023-07-02T04:45:25;6.43;;;4.47;;
71562;SDS011;59391;52.504;13.438;2023-07-02T04:47:56;7.72;;;4.47;;
71562;SDS011;59391;52.504;13.438;2023-07-02T04:50:22;7.10;;;4.57;;
71562;SDS011;59391;52.504;13.438;2023-07-02T04:52:48;7.88;;;4.30;;
71562;SDS011;59391;52.504;13.438;2023-07-02T04:55:13;6.45;;;4.32;;
71562;SDS011;59391;52.504;13.438;2023-07-02T04:57:39;6.83;;;4.70;;
71562;SDS011;59391;52.504;13.438;2023-07-02T05:00:05;6.82;;;4.43;;
71562;SDS011;59391;52.504;13.438;2023-07-02T05:02:32;8.23;;;4.55;;
71562;SDS011;59391;52.504;13.438;2023-07-02T05:04:57;6.63;;;4.50;;
71562;SDS011;59391;52.504;13.438;2023-07-02T05:07:23;5.83;;;4.30;;
71562;SDS011;59391;52.504;13.438;2023-07-02T05:09:49;7.72;;;4.63;;
71562;SDS011;59391;52.504;13.438;2023-07-02T05:12:17;6.60;;;4.13;;
71562;SDS011;59391;52.504;13.438;2023-07-02T05:14:43;5.75;;;4.10;;
71562;SDS011;59391;52.504;13.438;2023-07-02T05:17:08;6.80;;;4.57;;
71562;SDS011;59391;52.504;13.438;2023-07-02T05:19:34;6.73;;;4.40;;
71562;SDS011;59391;52.504;13.438;2023-07-02T05:21:59;7.20;;;4.30;;
71562;SDS011;59391;52.504;13.438;2023-07-02T05:24:25;7.17;;;4.43;;
71562;SDS011;59391;52.504;13.438;2023-07-02T05:26:51;6.25;;;4.10;;
71562;SDS011;59391;52.504;13.438;2023-07-02T05:29:16;7.23;;;4.10;;
71562;SDS011;59391;52.504;13.438;2023-07-02T05:31:42;6.90;;;4.40;;
71562;SDS011;59391;52.504;13.438;2023-07-02T05:34:08;7.90;;;4.00;;
71562;SDS011;59391;52.504;13.438;2023-07-02T05:36:33;7.83;;;4.30;;
71562;SDS011;59391;52.504;13.438;2023-07-02T05:38:59;7.75;;;4.18;;
71562;SDS011;59391;52.504;13.438;2023-07-02T05:41:25;7.95;;;4.05;;
71562;SDS011;59391;52.504;13.438;2023-07-02T05:43:55;6.68;;;4.15;;
71562;SDS011;59391;52.504;13.438;2023-07-02T05:46:22;7.40;;;4.20;;
71562;SDS011;59391;52.504;13.438;2023-07-02T05:48:48;6.22;;;3.92;;
71562;SDS011;59391;52.504;13.438;2023-07-02T05:51:13;7.90;;;3.90;;
71562;SDS011;59391;52.504;13.438;2023-07-02T05:53:45;7.15;;;3.92;;
71562;SDS011;59391;52.504;13.438;2023-07-02T05:56:10;8.90;;;4.27;;
71562;SDS011;59391;52.504;13.438;2023-07-02T05:58:36;8.02;;;3.92;;
71562;SDS011;59391;52.504;13.438;2023-07-02T06:01:02;6.73;;;4.20;;
71562;SDS011;59391;52.504;13.438;2023-07-02T06:03:27;9.35;;;4.38;;
71562;SDS011;59391;52.504;13.438;2023-07-02T06:05:53;7.53;;;3.67;;
71562;SDS011;59391;52.504;13.438;2023-07-02T06:08:18;6.53;;;4.13;;
71562;SDS011;59391;52.504;13.438;2023-07-02T06:10:46;6.07;;;4.18;;
71562;SDS011;59391;52.504;13.438;2023-07-02T06:13:12;8.07;;;3.90;;
71562;SDS011;59391;52.504;13.438;2023-07-02T06:15:39;7.22;;;4.15;;
71562;SDS011;59391;52.504;13.438;2023-07-02T06:18:05;6.68;;;3.83;;
71562;SDS011;59391;52.504;13.438;2023-07-02T06:20:30;7.50;;;4.10;;
71562;SDS011;59391;52.504;13.438;2023-07-02T06:22:56;6.83;;;3.80;;
71562;SDS011;59391;52.504;13.438;2023-07-02T06:25:22;6.53;;;3.65;;
71562;SDS011;59391;52.504;13.438;2023-07-02T06:27:47;6.03;;;4.03;;
71562;SDS011;59391;52.504;13.438;2023-07-02T06:30:13;8.70;;;3.93;;
71562;SDS011;59391;52.504;13.438;2023-07-02T06:32:39;6.77;;;3.77;;
71562;SDS011;59391;52.504;13.438;2023-07-02T06:35:05;6.07;;;3.70;;
71562;SDS011;59391;52.504;13.438;2023-07-02T06:37:31;6.95;;;3.53;;
71562;SDS011;59391;52.504;13.438;2023-07-02T06:39:58;6.72;;;3.67;;
71562;SDS011;59391;52.504;13.438;2023-07-02T06:42:24;6.23;;;3.83;;
71562;SDS011;59391;52.504;13.438;2023-07-02T06:44:50;6.03;;;3.90;;
71562;SDS011;59391;52.504;13.438;2023-07-02T06:47:16;7.07;;;3.90;;
71562;SDS011;59391;52.504;13.438;2023-07-02T06:49:42;6.72;;;3.70;;
71562;SDS011;59391;52.504;13.438;2023-07-02T06:52:08;6.63;;;3.30;;
71562;SDS011;59391;52.504;13.438;2023-07-02T06:54:34;7.22;;;3.70;;
71562;SDS011;59391;52.504;13.438;2023-07-02T06:56:59;7.35;;;3.83;;
71562;SDS011;59391;52.504;13.438;2023-07-02T06:59:25;7.53;;;4.17;;
71562;SDS011;59391;52.504;13.438;2023-07-02T07:01:51;8.05;;;3.80;;
71562;SDS011;59391;52.504;13.438;2023-07-02T07:04:17;6.80;;;3.58;;
71562;SDS011;59391;52.504;13.438;2023-07-02T07:06:43;6.80;;;3.80;;
71562;SDS011;59391;52.504;13.438;2023-07-02T07:09:09;6.88;;;3.40;;
71562;SDS011;59391;52.504;13.438;2023-07-02T07:11:35;8.63;;;3.72;;
71562;SDS011;59391;52.504;13.438;2023-07-02T07:14:01;5.37;;;3.60;;
71562;SDS011;59391;52.504;13.438;2023-07-02T07:16:27;5.88;;;3.50;;
71562;SDS011;59391;52.504;13.438;2023-07-02T07:18:52;6.07;;;3.63;;
71562;SDS011;59391;52.504;13.438;2023-07-02T07:21:18;6.82;;;3.20;;
71562;SDS011;59391;52.504;13.438;2023-07-02T07:23:44;6.50;;;3.43;;
71562;SDS011;59391;52.504;13.438;2023-07-02T07:26:09;6.28;;;3.63;;
71562;SDS011;59391;52.504;13.438;2023-07-02T07:28:35;6.73;;;3.87;;
71562;SDS011;59391;52.504;13.438;2023-07-02T07:31:01;6.13;;;3.67;;
71562;SDS011;59391;52.504;13.438;2023-07-02T07:33:26;6.43;;;3.37;;
71562;SDS011;59391;52.504;13.438;2023-07-02T07:35:52;7.93;;;3.58;;
71562;SDS011;59391;52.504;13.438;2023-07-02T07:38:21;7.60;;;3.80;;
71562;SDS011;59391;52.504;13.438;2023-07-02T07:40:46;6.53;;;3.50;;
71562;SDS011;59391;52.504;13.438;2023-07-02T07:43:12;7.43;;;3.90;;
71562;SDS011;59391;52.504;13.438;2023-07-02T07:45:38;5.47;;;3.45;;
71562;SDS011;59391;52.504;13.438;2023-07-02T07:48:04;7.57;;;3.93;;
71562;SDS011;59391;52.504;13.438;2023-07-02T07:50:31;8.45;;;4.03;;
71562;SDS011;59391;52.504;13.438;2023-07-02T07:52:56;8.63;;;4.00;;
71562;SDS011;59391;52.504;13.438;2023-07-02T07:55:23;6.00;;;3.70;;
71562;SDS011;59391;52.504;13.438;2023-07-02T07:57:49;7.75;;;4.07;;
71562;SDS011;59391;52.504;13.438;2023-07-02T08:00:14;6.37;;;3.50;;
71562;SDS011;59391;52.504;13.438;2023-07-02T08:02:42;6.20;;;3.72;;
71562;SDS011;59391;52.504;13.438;2023-07-02T08:05:08;6.95;;;3.80;;
71562;SDS011;59391;52.504;13.438;2023-07-02T08:07:34;6.78;;;3.90;;
71562;SDS011;59391;52.504;13.438;2023-07-02T08:10:00;8.03;;;3.87;;
71562;SDS011;59391;52.504;13.438;2023-07-02T08:12:27;6.03;;;3.90;;
71562;SDS011;59391;52.504;13.438;2023-07-02T08:14:54;7.45;;;3.88;;
71562;SDS011;59391;52.504;13.438;2023-07-02T08:17:20;6.03;;;4.10;;
71562;SDS011;59391;52.504;13.438;2023-07-02T08:19:46;6.47;;;3.80;;
71562;SDS011;59391;52.504;13.438;2023-07-02T08:22:12;6.05;;;4.47;;
71562;SDS011;59391;52.504;13.438;2023-07-02T08:24:38;6.63;;;4.30;;
71562;SDS011;59391;52.504;13.438;2023-07-02T08:27:04;8.60;;;4.20;;
71562;SDS011;59391;52.504;13.438;2023-07-02T08:29:30;6.65;;;4.20;;
71562;SDS011;59391;52.504;13.438;2023-07-02T08:31:56;7.03;;;4.10;;
71562;SDS011;59391;52.504;13.438;2023-07-02T08:34:23;6.03;;;4.10;;
71562;SDS011;59391;52.504;13.438;2023-07-02T08:36:49;7.40;;;4.30;;
71562;SDS011;59391;52.504;13.438;2023-07-02T08:39:16;7.78;;;4.43;;
71562;SDS011;59391;52.504;13.438;2023-07-02T08:41:42;8.70;;;4.38;;
71562;SDS011;59391;52.504;13.438;2023-07-02T08:44:13;9.88;;;4.80;;
71562;SDS011;59391;52.504;13.438;2023-07-02T08:46:43;7.00;;;4.40;;
71562;SDS011;59391;52.504;13.438;2023-07-02T08:49:09;7.53;;;4.45;;
71562;SDS011;59391;52.504;13.438;2023-07-02T08:51:35;7.47;;;4.30;;
71562;SDS011;59391;52.504;13.438;2023-07-02T08:54:02;8.00;;;4.30;;
71562;SDS011;59391;52.504;13.438;2023-07-02T08:56:28;8.57;;;4.22;;
71562;SDS011;59391;52.504;13.438;2023-07-02T08:58:54;7.53;;;4.20;;
71562;SDS011;59391;52.504;13.438;2023-07-02T09:01:21;8.30;;;4.43;;
71562;SDS011;59391;52.504;13.438;2023-07-02T09:03:47;9.43;;;4.40;;
71562;SDS011;59391;52.504;13.438;2023-07-02T09:06:16;8.20;;;4.47;;
71562;SDS011;59391;52.504;13.438;2023-07-02T09:08:43;9.73;;;4.63;;
71562;SDS011;59391;52.504;13.438;2023-07-02T09:11:12;7.23;;;4.63;;
71562;SDS011;59391;52.504;13.438;2023-07-02T09:13:45;11.48;;;4.80;;
71562;SDS011;59391;52.504;13.438;2023-07-02T09:19:03;9.63;;;4.75;;
71562;SDS011;59391;52.504;13.438;2023-07-02T09:21:43;8.00;;;4.33;;
71562;SDS011;59391;52.504;13.438;2023-07-02T09:26:47;9.85;;;4.97;;
71562;SDS011;59391;52.504;13.438;2023-07-02T09:29:33;8.85;;;4.75;;
71562;SDS011;59391;52.504;13.438;2023-07-02T09:32:00;9.35;;;4.70;;
71562;SDS011;59391;52.504;13.438;2023-07-02T09:34:28;7.93;;;4.27;;
71562;SDS011;59391;52.504;13.438;2023-07-02T09:37:06;11.63;;;5.38;;
71562;SDS011;59391;52.504;13.438;2023-07-02T09:39:32;11.13;;;5.40;;
71562;SDS011;59391;52.504;13.438;2023-07-02T09:42:01;9.40;;;5.13;;
71562;SDS011;59391;52.504;13.438;2023-07-02T09:44:30;10.40;;;5.32;;
71562;SDS011;59391;52.504;13.438;2023-07-02T09:47:02;11.13;;;4.68;;
71562;SDS011;59391;52.504;13.438;2023-07-02T09:52:30;11.63;;;5.25;;
71562;SDS011;59391;52.504;13.438;2023-07-02T09:54:58;11.17;;;5.80;;
71562;SDS011;59391;52.504;13.438;2023-07-02T09:57:23;11.80;;;5.20;;
71562;SDS011;59391;52.504;13.438;2023-07-02T09:59:49;10.80;;;5.07;;
71562;SDS011;59391;52.504;13.438;2023-07-02T10:02:15;11.38;;;5.10;;
71562;SDS011;59391;52.504;13.438;2023-07-02T10:04:42;13.35;;;5.18;;
71562;SDS011;59391;52.504;13.438;2023-07-02T10:07:12;11.02;;;5.70;;
71562;SDS011;59391;52.504;13.438;2023-07-02T10:09:50;11.57;;;5.17;;
71562;SDS011;59391;52.504;13.438;2023-07-02T10:14:47;10.18;;;5.13;;
71562;SDS011;59391;52.504;13.438;2023-07-02T10:17:28;10.07;;;5.20;;
71562;SDS011;59391;52.504;13.438;2023-07-02T10:20:05;12.98;;;5.53;;
71562;SDS011;59391;52.504;13.438;2023-07-02T10:22:45;13.75;;;5.50;;
71562;SDS011;59391;52.504;13.438;2023-07-02T10:25:23;10.98;;;5.50;;
71562;SDS011;59391;52.504;13.438;2023-07-02T10:27:59;11.57;;;5.30;;
71562;SDS011;59391;52.504;13.438;2023-07-02T10:33:07;13.32;;;5.90;;
71562;SDS011;59391;52.504;13.438;2023-07-02T10:35:34;13.32;;;6.20;;
71562;SDS011;59391;52.504;13.438;2023-07-02T10:38:00;13.85;;;6.50;;
71562;SDS011;59391;52.504;13.438;2023-07-02T10:40:25;13.13;;;6.77;;
71562;SDS011;59391;52.504;13.438;2023-07-02T10:42:52;13.13;;;5.75;;
71562;SDS011;59391;52.504;13.438;2023-07-02T10:45:18;12.27;;;5.78;;
71562;SDS011;59391;52.504;13.438;2023-07-02T10:47:46;10.10;;;5.53;;
71562;SDS011;59391;52.504;13.438;2023-07-02T10:52:45;14.65;;;6.10;;
71562;SDS011;59391;52.504;13.438;2023-07-02T10:55:22;14.82;;;5.93;;
71562;SDS011;59391;52.504;13.438;2023-07-02T10:57:50;10.75;;;5.18;;
71562;SDS011;59391;52.504;13.438;2023-07-02T11:00:31;13.13;;;6.00;;
71562;SDS011;59391;52.504;13.438;2023-07-02T11:02:57;12.23;;;5.75;;
71562;SDS011;59391;52.504;13.438;2023-07-02T11:05:23;14.00;;;6.22;;
71562;SDS011;59391;52.504;13.438;2023-07-02T11:08:07;12.32;;;5.70;;
71562;SDS011;59391;52.504;13.438;2023-07-02T11:10:33;13.73;;;6.28;;
71562;SDS011;59391;52.504;13.438;2023-07-02T11:13:09;13.93;;;5.67;;
71562;SDS011;59391;52.504;13.438;2023-07-02T11:15:39;13.13;;;6.05;;
71562;SDS011;59391;52.504;13.438;2023-07-02T11:20:38;11.70;;;5.97;;
71562;SDS011;59391;52.504;13.438;2023-07-02T11:23:16;13.67;;;5.93;;
71562;SDS011;59391;52.504;13.438;2023-07-02T11:25:59;13.23;;;5.80;;
71562;SDS011;59391;52.504;13.438;2023-07-02T11:28:26;12.90;;;6.35;;
71562;SDS011;59391;52.504;13.438;2023-07-02T11:30:54;10.65;;;5.97;;
71562;SDS011;59391;52.504;13.438;2023-07-02T11:33:20;13.17;;;5.90;;
71562;SDS011;59391;52.504;13.438;2023-07-02T11:35:58;11.73;;;6.05;;
71562;SDS011;59391;52.504;13.438;2023-07-02T11:38:23;15.07;;;6.03;;
71562;SDS011;59391;52.504;13.438;2023-07-02T11:40:49;12.50;;;5.90;;
71562;SDS011;59391;52.504;13.438;2023-07-02T11:43:15;12.80;;;6.17;;
71562;SDS011;59391;52.504;13.438;2023-07-02T11:45:40;14.18;;;6.43;;
71562;SDS011;59391;52.504;13.438;2023-07-02T11:48:06;12.60;;;5.95;;
71562;SDS011;59391;52.504;13.438;2023-07-02T11:50:32;11.77;;;5.80;;
71562;SDS011;59391;52.504;13.438;2023-07-02T11:52:57;14.30;;;6.10;;
71562;SDS011;59391;52.504;13.438;2023-07-02T11:55:24;12.23;;;5.90;;
71562;SDS011;59391;52.504;13.438;2023-07-02T11:57:49;13.60;;;5.68;;
71562;SDS011;59391;52.504;13.438;2023-07-02T12:00:15;12.97;;;5.77;;
71562;SDS011;59391;52.504;13.438;2023-07-02T12:02:41;13.73;;;6.20;;
71562;SDS011;59391;52.504;13.438;2023-07-02T12:05:07;14.50;;;5.97;;
71562;SDS011;59391;52.504;13.438;2023-07-02T12:07:33;14.73;;;6.63;;
71562;SDS011;59391;52.504;13.438;2023-07-02T12:09:59;12.75;;;5.63;;
71562;SDS011;59391;52.504;13.438;2023-07-02T12:12:25;13.73;;;5.67;;
71562;SDS011;59391;52.504;13.438;2023-07-02T12:14:51;12.98;;;5.68;;
71562;SDS011;59391;52.504;13.438;2023-07-02T12:17:17;11.97;;;5.63;;
71562;SDS011;59391;52.504;13.438;2023-07-02T12:19:42;12.75;;;6.05;;
71562;SDS011;59391;52.504;13.438;2023-07-02T12:22:08;14.30;;;5.73;;
71562;SDS011;59391;52.504;13.438;2023-07-02T12:24:34;12.55;;;5.47;;
71562;SDS011;59391;52.504;13.438;2023-07-02T12:26:59;13.73;;;6.33;;
71562;SDS011;59391;52.504;13.438;2023-07-02T12:29:25;14.07;;;5.57;;
71562;SDS011;59391;52.504;13.438;2023-07-02T12:31:51;12.87;;;5.90;;
71562;SDS011;59391;52.504;13.438;2023-07-02T12:34:16;13.60;;;6.33;;
71562;SDS011;59391;52.504;13.438;2023-07-02T12:36:42;11.63;;;5.70;;
71562;SDS011;59391;52.504;13.438;2023-07-02T12:39:08;12.87;;;5.50;;
71562;SDS011;59391;52.504;13.438;2023-07-02T12:41:33;14.35;;;6.13;;
71562;SDS011;59391;52.504;13.438;2023-07-02T12:43:59;13.63;;;6.07;;
71562;SDS011;59391;52.504;13.438;2023-07-02T12:46:25;12.52;;;5.43;;
71562;SDS011;59391;52.504;13.438;2023-07-02T12:48:51;12.00;;;5.65;;
71562;SDS011;59391;52.504;13.438;2023-07-02T12:51:16;11.67;;;5.73;;
71562;SDS011;59391;52.504;13.438;2023-07-02T12:53:42;13.27;;;6.03;;
71562;SDS011;59391;52.504;13.438;2023-07-02T12:56:08;10.98;;;5.55;;
71562;SDS011;59391;52.504;13.438;2023-07-02T12:58:33;12.87;;;5.90;;
71562;SDS011;59391;52.504;13.438;2023-07-02T13:00:59;11.93;;;5.60;;
71562;SDS011;59391;52.504;13.438;2023-07-02T13:03:24;13.00;;;5.73;;
71562;SDS011;59391;52.504;13.438;2023-07-02T13:05:50;11.93;;;5.73;;
71562;SDS011;59391;52.504;13.438;2023-07-02T13:08:16;12.48;;;5.93;;
71562;SDS011;59391;52.504;13.438;2023-07-02T13:10:42;11.77;;;5.70;;
71562;SDS011;59391;52.504;13.438;2023-07-02T13:13:08;14.90;;;5.85;;
71562;SDS011;59391;52.504;13.438;2023-07-02T13:15:34;14.63;;;6.43;;
71562;SDS011;59391;52.504;13.438;2023-07-02T13:18:00;12.65;;;5.50;;
71562;SDS011;59391;52.504;13.438;2023-07-02T13:20:26;13.70;;;5.77;;
71562;SDS011;59391;52.504;13.438;2023-07-02T13:22:52;14.45;;;6.00;;
71562;SDS011;59391;52.504;13.438;2023-07-02T13:25:17;12.83;;;5.83;;
71562;SDS011;59391;52.504;13.438;2023-07-02T13:27:46;12.23;;;5.63;;
71562;SDS011;59391;52.504;13.438;2023-07-02T13:30:12;15.68;;;5.88;;
71562;SDS011;59391;52.504;13.438;2023-07-02T13:32:37;15.53;;;6.43;;
71562;SDS011;59391;52.504;13.438;2023-07-02T13:35:03;12.93;;;6.53;;
71562;SDS011;59391;52.504;13.438;2023-07-02T13:37:29;13.40;;;5.83;;
71562;SDS011;59391;52.504;13.438;2023-07-02T13:39:55;14.00;;;5.93;;
71562;SDS011;59391;52.504;13.438;2023-07-02T13:42:20;15.53;;;6.37;;
71562;SDS011;59391;52.504;13.438;2023-07-02T13:44:46;12.13;;;5.90;;
71562;SDS011;59391;52.504;13.438;2023-07-02T13:47:12;15.37;;;6.43;;
71562;SDS011;59391;52.504;13.438;2023-07-02T13:49:37;12.20;;;6.10;;
71562;SDS011;59391;52.504;13.438;2023-07-02T13:52:03;11.50;;;5.85;;
71562;SDS011;59391;52.504;13.438;2023-07-02T13:54:30;13.07;;;5.53;;
71562;SDS011;59391;52.504;13.438;2023-07-02T13:56:55;15.17;;;6.20;;
71562;SDS011;59391;52.504;13.438;2023-07-02T13:59:22;13.80;;;5.85;;
71562;SDS011;59391;52.504;13.438;2023-07-02T14:01:48;12.10;;;5.72;;
71562;SDS011;59391;52.504;13.438;2023-07-02T14:04:15;13.93;;;5.80;;
71562;SDS011;59391;52.504;13.438;2023-07-02T14:06:42;12.95;;;5.90;;
71562;SDS011;59391;52.504;13.438;2023-07-02T14:09:08;12.27;;;5.63;;
71562;SDS011;59391;52.504;13.438;2023-07-02T14:11:34;13.95;;;5.70;;
71562;SDS011;59391;52.504;13.438;2023-07-02T14:14:03;11.07;;;5.47;;
71562;SDS011;59391;52.504;13.438;2023-07-02T14:16:29;12.00;;;6.00;;
71562;SDS011;59391;52.504;13.438;2023-07-02T14:18:55;13.15;;;5.88;;
71562;SDS011;59391;52.504;13.438;2023-07-02T14:21:21;12.00;;;5.60;;
71562;SDS011;59391;52.504;13.438;2023-07-02T14:23:46;14.13;;;5.90;;
71562;SDS011;59391;52.504;13.438;2023-07-02T14:26:12;11.97;;;5.93;;
71562;SDS011;59391;52.504;13.438;2023-07-02T14:28:38;16.40;;;6.20;;
71562;SDS011;59391;52.504;13.438;2023-07-02T14:31:04;12.73;;;5.73;;
71562;SDS011;59391;52.504;13.438;2023-07-02T14:33:32;12.18;;;5.78;;
71562;SDS011;59391;52.504;13.438;2023-07-02T14:36:01;12.82;;;6.13;;
71562;SDS011;59391;52.504;13.438;2023-07-02T14:38:28;12.98;;;6.22;;
71562;SDS011;59391;52.504;13.438;2023-07-02T14:40:54;11.93;;;5.32;;
71562;SDS011;59391;52.504;13.438;2023-07-02T14:43:21;12.50;;;6.60;;
71562;SDS011;59391;52.504;13.438;2023-07-02T14:45:51;11.60;;;6.35;;
71562;SDS011;59391;52.504;13.438;2023-07-02T14:48:20;10.77;;;5.57;;
71562;SDS011;59391;52.504;13.438;2023-07-02T14:50:53;13.52;;;5.72;;
71562;SDS011;59391;52.504;13.438;2023-07-02T14:53:25;12.73;;;5.72;;